createdAt,value
2018-09-10T00:00:31.151Z,0
2018-09-10T00:01:41.235Z,0
2018-09-10T00:02:51.569Z,0
2018-09-10T00:04:01.648Z,0
2018-09-10T00:05:11.736Z,0
2018-09-10T00:06:21.811Z,0
2018-09-10T00:07:31.370Z,0
2018-09-10T00:08:41.256Z,0
2018-09-10T00:09:51.330Z,0
2018-09-10T00:11:01.139Z,0
2018-09-10T00:12:11.230Z,0
2018-09-10T00:13:21.298Z,0
2018-09-10T00:14:31.174Z,0
2018-09-10T00:15:40.742Z,0
2018-09-10T00:16:50.832Z,0
2018-09-10T00:18:00.911Z,0
2018-09-10T00:19:11.045Z,0
2018-09-10T00:20:21.133Z,0
2018-09-10T00:21:31.218Z,0
2018-09-10T00:22:41.305Z,0
2018-09-10T00:23:51.377Z,0
2018-09-10T00:25:01.453Z,0
2018-09-10T00:26:11.508Z,0
2018-09-10T00:27:21.579Z,0
2018-09-10T00:28:31.665Z,0
2018-09-10T00:29:41.742Z,0
2018-09-10T00:30:51.801Z,0
2018-09-10T00:32:01.885Z,0
2018-09-10T00:33:11.965Z,0
2018-09-10T00:34:22.274Z,0
2018-09-10T00:35:32.079Z,0
2018-09-10T00:36:41.900Z,0
2018-09-10T00:37:51.714Z,0
2018-09-10T00:39:01.787Z,0
2018-09-10T00:40:11.853Z,0
2018-09-10T00:41:21.927Z,0
2018-09-10T00:42:32.014Z,0
2018-09-10T00:43:42.143Z,0
2018-09-10T00:44:51.961Z,0
2018-09-10T00:46:02.080Z,0
2018-09-10T00:47:12.231Z,0
2018-09-10T00:48:22.293Z,0
2018-09-10T00:49:32.544Z,0
2018-09-10T00:50:42.622Z,0
2018-09-10T00:51:52.683Z,0
2018-09-10T00:53:03.211Z,0
2018-09-10T00:54:13.048Z,0
2018-09-10T00:55:23.159Z,0
2018-09-10T00:56:33.246Z,0
2018-09-10T00:57:43.328Z,0
2018-09-10T00:58:52.886Z,0
2018-09-10T01:00:02.471Z,0
2018-09-10T01:01:12.554Z,0
2018-09-10T01:02:22.386Z,0
2018-09-10T01:03:32.492Z,0
2018-09-10T01:04:42.568Z,0
2018-09-10T01:05:52.646Z,0
2018-09-10T01:07:02.823Z,0
2018-09-10T01:08:12.638Z,0
2018-09-10T01:09:22.761Z,0
2018-09-10T01:10:32.567Z,0
2018-09-10T01:11:42.635Z,0
2018-09-10T01:12:52.717Z,0
2018-09-10T01:14:03.040Z,0
2018-09-10T01:15:12.874Z,0
2018-09-10T01:16:22.931Z,0
2018-09-10T01:17:33.002Z,0
2018-09-10T01:18:43.056Z,0
2018-09-10T01:19:53.139Z,0
2018-09-10T01:21:03.235Z,0
2018-09-10T01:22:13.315Z,0
2018-09-10T01:23:23.226Z,0
2018-09-10T01:24:33.358Z,0
2018-09-10T01:25:43.429Z,0
2018-09-10T01:26:53.506Z,0
2018-09-10T01:28:03.586Z,0
2018-09-10T01:29:13.697Z,0
2018-09-10T01:30:23.801Z,0
2018-09-10T01:31:33.870Z,0
2018-09-10T01:32:43.682Z,0
2018-09-10T01:33:53.747Z,0
2018-09-10T01:35:03.813Z,0
2018-09-10T01:36:13.886Z,0
2018-09-10T01:37:23.987Z,0
2018-09-10T01:38:34.045Z,0
2018-09-10T01:39:43.859Z,0
2018-09-10T01:40:53.944Z,0
2018-09-10T01:42:04.108Z,0
2018-09-10T01:43:14.191Z,0
2018-09-10T01:44:24.276Z,0
2018-09-10T01:45:34.089Z,0
2018-09-10T01:46:44.157Z,0
2018-09-10T01:47:54.303Z,0
2018-09-10T01:49:04.380Z,0
2018-09-10T01:50:14.192Z,0
2018-09-10T01:51:24.252Z,0
2018-09-10T01:52:34.065Z,0
2018-09-10T01:53:44.143Z,0
2018-09-10T01:54:54.220Z,0
2018-09-10T01:56:04.282Z,0
2018-09-10T01:57:14.118Z,0
2018-09-10T01:58:24.200Z,0
2018-09-10T01:59:34.040Z,0
2018-09-10T02:00:44.122Z,0
2018-09-10T02:01:54.185Z,0
2018-09-10T02:03:03.995Z,0
2018-09-10T02:04:13.818Z,0
2018-09-10T02:05:23.913Z,0
2018-09-10T02:06:33.455Z,0
2018-09-10T02:07:43.547Z,0
2018-09-10T02:08:53.621Z,0
2018-09-10T02:10:03.170Z,0
2018-09-10T02:11:13.394Z,0
2018-09-10T02:12:22.689Z,0
2018-09-10T02:13:32.762Z,0
2018-09-10T02:14:42.828Z,0
2018-09-10T02:15:52.630Z,0
2018-09-10T02:17:02.629Z,0
2018-09-10T02:18:12.773Z,0
2018-09-10T02:19:22.579Z,0
2018-09-10T02:20:32.862Z,0
2018-09-10T02:21:42.683Z,0
2018-09-10T02:22:52.493Z,0
2018-09-10T02:24:02.311Z,0
2018-09-10T02:25:12.389Z,0
2018-09-10T02:26:22.457Z,0
2018-09-10T02:27:33.017Z,0
2018-09-10T02:28:43.273Z,0
2018-09-10T02:29:53.348Z,0
2018-09-10T02:31:03.458Z,0
2018-09-10T02:32:13.538Z,0
2018-09-10T02:33:23.366Z,0
2018-09-10T02:34:33.437Z,0
2018-09-10T02:35:43.518Z,0
2018-09-10T02:36:53.608Z,0
2018-09-10T02:38:03.698Z,0
2018-09-10T02:39:13.776Z,0
2018-09-10T02:40:23.578Z,0
2018-09-10T02:41:33.677Z,0
2018-09-10T02:42:43.496Z,0
2018-09-10T02:43:53.607Z,0
2018-09-10T02:45:03.435Z,0
2018-09-10T02:46:13.562Z,0
2018-09-10T02:47:23.386Z,0
2018-09-10T02:48:33.459Z,0
2018-09-10T02:49:43.552Z,0
2018-09-10T02:50:53.366Z,0
2018-09-10T02:52:03.468Z,0
2018-09-10T02:53:13.801Z,0
2018-09-10T02:54:23.886Z,0
2018-09-10T02:55:33.976Z,0
2018-09-10T02:56:44.048Z,0
2018-09-10T02:57:53.964Z,0
2018-09-10T02:59:04.032Z,0
2018-09-10T03:00:14.092Z,0
2018-09-10T03:01:24.189Z,0
2018-09-10T03:02:34.264Z,0
2018-09-10T03:34:47.946Z,0
2018-09-10T03:35:58.032Z,0
2018-09-10T03:37:08.099Z,0
2018-09-10T03:38:17.914Z,0
2018-09-10T03:39:27.987Z,0
2018-09-10T03:40:37.841Z,0
2018-09-10T03:41:47.927Z,0
2018-09-10T03:42:57.733Z,0
2018-09-10T03:44:07.536Z,0
2018-09-10T03:45:17.607Z,0
2018-09-10T03:46:27.664Z,0
2018-09-10T03:47:37.840Z,0
2018-09-10T03:48:47.657Z,0
2018-09-10T03:49:57.755Z,0
2018-09-10T03:51:07.781Z,0
2018-09-10T03:52:17.598Z,0
2018-09-10T03:53:27.686Z,0
2018-09-10T03:54:37.779Z,4
2018-09-10T03:55:47.862Z,4
2018-09-10T03:56:57.950Z,0
2018-09-10T03:58:08.073Z,4
2018-09-10T03:59:18.144Z,4
2018-09-10T04:00:27.964Z,4
2018-09-10T04:01:38.050Z,4
2018-09-10T04:02:48.114Z,4
2018-09-10T04:03:58.020Z,8
2018-09-10T04:05:08.433Z,12
2018-09-10T04:06:18.524Z,12
2018-09-10T04:07:28.353Z,12
2018-09-10T04:08:38.438Z,16
2018-09-10T04:09:48.504Z,24
2018-09-10T04:10:58.584Z,28
2018-09-10T04:12:08.687Z,28
2018-09-10T04:13:18.753Z,36
2018-09-10T04:14:28.842Z,40
2018-09-10T04:15:38.918Z,52
2018-09-10T04:16:48.982Z,60
2018-09-10T04:17:59.065Z,68
2018-09-10T04:19:09.155Z,76
2018-09-10T04:20:18.966Z,88
2018-09-10T04:21:29.026Z,100
2018-09-10T04:22:39.081Z,116
2018-09-10T04:23:49.169Z,128
2018-09-10T04:24:59.488Z,144
2018-09-10T04:26:10.155Z,160
2018-09-10T04:27:20.281Z,180
2018-09-10T04:28:30.595Z,196
2018-09-10T04:29:40.396Z,216
2018-09-10T04:30:50.454Z,236
2018-09-10T04:32:00.632Z,260
2018-09-10T04:33:10.758Z,280
2018-09-10T04:34:20.587Z,304
2018-09-10T04:35:30.408Z,328
2018-09-10T04:36:40.509Z,356
2018-09-10T04:37:50.314Z,384
2018-09-10T04:39:00.462Z,464
2018-09-10T04:40:10.544Z,520
2018-09-10T04:41:20.370Z,544
2018-09-10T04:42:31.122Z,768
2018-09-10T04:43:41.198Z,860
2018-09-10T04:44:51.011Z,972
2018-09-10T04:46:01.097Z,1216
2018-09-10T04:47:11.177Z,1352
2018-09-10T04:48:21.270Z,1308
2018-09-10T04:49:31.355Z,1192
2018-09-10T04:50:41.183Z,1052
2018-09-10T04:51:51.256Z,896
2018-09-10T04:53:01.096Z,964
2018-09-10T04:54:11.174Z,1072
2018-09-10T04:55:21.003Z,1140
2018-09-10T04:56:31.087Z,1344
2018-09-10T04:57:41.160Z,1088
2018-09-10T04:58:50.977Z,1044
2018-09-10T05:00:00.815Z,1164
2018-09-10T05:01:10.899Z,1636
2018-09-10T05:02:21.032Z,1652
2018-09-10T05:03:30.850Z,1316
2018-09-10T05:04:41.075Z,1256
2018-09-10T05:05:51.171Z,1264
2018-09-10T05:07:01.480Z,1300
2018-09-10T05:08:11.315Z,1332
2018-09-10T05:09:21.396Z,1364
2018-09-10T05:10:30.696Z,1396
2018-09-10T05:11:40.532Z,1428
2018-09-10T05:12:50.601Z,1460
2018-09-10T05:14:00.456Z,1488
2018-09-10T05:15:10.551Z,1516
2018-09-10T05:16:20.662Z,1540
2018-09-10T05:17:30.754Z,1576
2018-09-10T05:18:40.836Z,1608
2018-09-10T05:19:50.953Z,1640
2018-09-10T05:21:01.034Z,1668
2018-09-10T05:22:11.618Z,1700
2018-09-10T05:23:21.735Z,1748
2018-09-10T05:24:31.815Z,1992
2018-09-10T05:25:41.909Z,2264
2018-09-10T05:26:51.989Z,2456
2018-09-10T05:28:02.199Z,2492
2018-09-10T05:29:12.342Z,2256
2018-09-10T05:30:22.153Z,1944
2018-09-10T05:31:32.246Z,1916
2018-09-10T05:32:42.117Z,1940
2018-09-10T05:33:52.204Z,1960
2018-09-10T05:35:02.280Z,1992
2018-09-10T05:36:12.375Z,2164
2018-09-10T05:37:22.444Z,2600
2018-09-10T05:38:32.531Z,2976
2018-09-10T05:39:42.608Z,2916
2018-09-10T05:40:52.697Z,2496
2018-09-10T05:42:03.230Z,2152
2018-09-10T05:43:13.357Z,2128
2018-09-10T05:44:23.440Z,2340
2018-09-10T05:45:33.532Z,2976
2018-09-10T05:46:43.339Z,3060
2018-09-10T05:47:53.417Z,2412
2018-09-10T05:49:03.564Z,2240
2018-09-10T05:50:13.698Z,2220
2018-09-10T05:51:23.524Z,2684
2018-09-10T05:52:33.616Z,3404
2018-09-10T05:53:43.169Z,3752
2018-09-10T05:54:53.250Z,3452
2018-09-10T05:56:03.331Z,2824
2018-09-10T05:57:12.997Z,2392
2018-09-10T05:58:23.060Z,2324
2018-09-10T05:59:32.881Z,2304
2018-09-10T06:00:42.760Z,2248
2018-09-10T06:01:52.859Z,2264
2018-09-10T06:03:03.272Z,2272
2018-09-10T06:04:13.069Z,2268
2018-09-10T06:05:23.154Z,2256
2018-09-10T06:06:33.286Z,2216
2018-09-10T06:07:43.348Z,2188
2018-09-10T06:08:53.425Z,2192
2018-09-10T06:10:03.252Z,2240
2018-09-10T06:11:13.328Z,2248
2018-09-10T06:12:23.412Z,2248
2018-09-10T06:13:33.503Z,2252
2018-09-10T06:14:43.834Z,2272
2018-09-10T06:15:53.924Z,2256
2018-09-10T06:17:03.984Z,2280
2018-09-10T06:18:13.801Z,2308
2018-09-10T06:19:23.631Z,2328
2018-09-10T06:20:33.444Z,2376
2018-09-10T06:21:43.532Z,2404
2018-09-10T06:22:53.602Z,2432
2018-09-10T06:24:03.684Z,2468
2018-09-10T06:25:13.765Z,2536
2018-09-10T06:26:23.941Z,2544
2018-09-10T06:27:34.036Z,2568
2018-09-10T06:28:44.105Z,2588
2018-09-10T06:29:53.897Z,2608
2018-09-10T06:31:03.984Z,2620
2018-09-10T06:32:14.069Z,2624
2018-09-10T06:33:24.150Z,2624
2018-09-10T06:34:34.209Z,2656
2018-09-10T06:35:44.167Z,2680
2018-09-10T06:36:54.260Z,2688
2018-09-10T06:38:04.416Z,2708
2018-09-10T06:39:14.495Z,2724
2018-09-10T06:40:24.568Z,2740
2018-09-10T06:41:34.383Z,2756
2018-09-10T06:42:44.471Z,2772
2018-09-10T06:43:54.557Z,2784
2018-09-10T06:45:04.653Z,2800
2018-09-10T06:46:14.728Z,2808
2018-09-10T06:47:24.551Z,2824
2018-09-10T06:48:34.101Z,2836
2018-09-10T06:49:43.917Z,2848
2018-09-10T06:50:53.994Z,2860
2018-09-10T06:52:04.068Z,2872
2018-09-10T06:53:14.145Z,2844
2018-09-10T06:54:24.234Z,2856
2018-09-10T06:55:34.376Z,2864
2018-09-10T06:56:44.467Z,2884
2018-09-10T06:57:54.543Z,2892
2018-09-10T06:59:04.625Z,2904
2018-09-10T07:00:13.991Z,2920
2018-09-10T07:01:24.173Z,2928
2018-09-10T07:02:34.251Z,2944
2018-09-10T07:03:44.332Z,2968
2018-09-10T07:04:54.413Z,2984
2018-09-10T07:06:04.235Z,2992
2018-09-10T07:07:14.386Z,3008
2018-09-10T07:08:24.531Z,3032
2018-09-10T07:09:34.335Z,3036
2018-09-10T07:10:44.169Z,3052
2018-09-10T07:11:54.245Z,3068
2018-09-10T07:13:04.575Z,3084
2018-09-10T07:14:14.753Z,3100
2018-09-10T07:15:24.562Z,3120
2018-09-10T07:16:34.383Z,3136
2018-09-10T07:17:44.457Z,3148
2018-09-10T07:18:55.361Z,3164
2018-09-10T07:20:05.643Z,3176
2018-09-10T07:21:15.962Z,3196
2018-09-10T07:22:26.044Z,3212
2018-09-10T07:23:36.151Z,3228
2018-09-10T07:24:46.290Z,3248
2018-09-10T07:25:56.378Z,3264
2018-09-10T07:27:06.441Z,3284
2018-09-10T07:28:16.332Z,3300
2018-09-10T07:29:26.415Z,3316
2018-09-10T07:30:36.289Z,3340
2018-09-10T07:31:46.411Z,3356
2018-09-10T07:32:56.489Z,3376
2018-09-10T07:34:06.553Z,3392
2018-09-10T07:35:16.349Z,3412
2018-09-10T07:36:26.224Z,3432
2018-09-10T07:37:36.320Z,3444
2018-09-10T07:38:46.407Z,3460
2018-09-10T07:39:56.504Z,3484
2018-09-10T07:41:06.585Z,3508
2018-09-10T07:42:16.669Z,3524
2018-09-10T07:43:27.012Z,3544
2018-09-10T07:44:37.176Z,3560
2018-09-10T07:45:47.266Z,3580
2018-09-10T07:46:57.341Z,3592
2018-09-10T07:48:06.948Z,3620
2018-09-10T07:49:16.766Z,3640
2018-09-10T07:50:26.768Z,3656
2018-09-10T07:51:36.612Z,3676
2018-09-10T07:52:46.676Z,3696
2018-09-10T07:53:56.823Z,3712
2018-09-10T07:55:06.913Z,3732
2018-09-10T07:56:16.984Z,3752
2018-09-10T07:57:26.546Z,3768
2018-09-10T07:58:36.350Z,3784
2018-09-10T07:59:46.433Z,3804
2018-09-10T08:00:56.726Z,3820
2018-09-10T08:02:06.534Z,3844
2018-09-10T08:03:16.742Z,3860
2018-09-10T08:04:26.849Z,3880
2018-09-10T08:05:36.736Z,3892
2018-09-10T08:06:46.821Z,3912
2018-09-10T08:07:56.915Z,3928
2018-09-10T08:09:06.925Z,3932
2018-09-10T08:10:17.177Z,3948
2018-09-10T08:11:27.519Z,3972
2018-09-10T08:12:37.333Z,3992
2018-09-10T08:13:47.431Z,4000
2018-09-10T08:14:57.527Z,4024
2018-09-10T08:16:07.426Z,4040
2018-09-10T08:17:17.216Z,4048
2018-09-10T08:18:27.047Z,4056
2018-09-10T08:19:37.136Z,4076
2018-09-10T08:20:47.227Z,4100
2018-09-10T08:21:57.040Z,4104
2018-09-10T08:23:07.115Z,4132
2018-09-10T08:24:31.774Z,4148
2018-09-10T08:25:42.041Z,4160
2018-09-10T08:26:51.916Z,4180
2018-09-10T08:28:01.484Z,4184
2018-09-10T08:29:11.584Z,4208
2018-09-10T08:30:36.611Z,4232
2018-09-10T08:31:46.711Z,4240
2018-09-10T08:32:57.028Z,4256
2018-09-10T08:34:06.846Z,4268
2018-09-10T08:35:16.923Z,4284
2018-09-10T08:36:27.069Z,4300
2018-09-10T08:37:37.155Z,4312
2018-09-10T08:38:47.242Z,4336
2018-09-10T08:39:57.310Z,4344
2018-09-10T08:41:08.117Z,4364
2018-09-10T08:42:17.979Z,4372
2018-09-10T08:43:27.799Z,4384
2018-09-10T08:44:37.895Z,4404
2018-09-10T08:45:48.003Z,4416
2018-09-10T08:46:58.081Z,4432
2018-09-10T08:48:08.012Z,4448
2018-09-10T08:49:18.104Z,4452
2018-09-10T08:50:28.176Z,4464
2018-09-10T08:51:38.056Z,4484
2018-09-10T08:52:47.871Z,4496
2018-09-10T08:53:58.373Z,4512
2018-09-10T08:55:09.642Z,4528
2018-09-10T08:56:21.251Z,4528
2018-09-10T08:57:31.711Z,4516
2018-09-10T08:58:41.534Z,4532
2018-09-10T08:59:51.619Z,4576
2018-09-10T09:01:01.170Z,4592
2018-09-10T09:02:11.419Z,4604
2018-09-10T09:03:21.243Z,4624
2018-09-10T09:04:31.063Z,4636
2018-09-10T09:05:40.933Z,4648
2018-09-10T09:06:50.756Z,4656
2018-09-10T09:08:01.088Z,4668
2018-09-10T09:09:11.318Z,4680
2018-09-10T09:10:21.398Z,4692
2018-09-10T09:11:31.591Z,4712
2018-09-10T09:12:41.679Z,4724
2018-09-10T09:13:51.767Z,4732
2018-09-10T09:15:01.597Z,4740
2018-09-10T09:16:11.657Z,4752
2018-09-10T09:17:21.876Z,4764
2018-09-10T09:18:32.284Z,4780
2018-09-10T09:19:42.389Z,4800
2018-09-10T09:20:52.482Z,4812
2018-09-10T09:22:02.782Z,4820
2018-09-10T09:23:13.357Z,4824
2018-09-10T09:24:23.368Z,4848
2018-09-10T09:25:33.478Z,4856
2018-09-10T09:26:43.569Z,4872
2018-09-10T09:27:53.394Z,4876
2018-09-10T09:29:03.278Z,4888
2018-09-10T09:30:13.369Z,4892
2018-09-10T09:31:23.326Z,4908
2018-09-10T09:32:33.157Z,4924
2018-09-10T09:33:43.235Z,4936
2018-09-10T09:34:53.381Z,4952
2018-09-10T09:36:03.499Z,4968
2018-09-10T09:37:13.620Z,4984
2018-09-10T09:38:23.447Z,5000
2018-09-10T09:39:33.529Z,5008
2018-09-10T09:40:43.921Z,5024
2018-09-10T09:41:53.747Z,5024
2018-09-10T09:43:03.919Z,5032
2018-09-10T09:44:14.064Z,5032
2018-09-10T09:45:23.889Z,5032
2018-09-10T09:46:34.031Z,5036
2018-09-10T09:47:44.101Z,5040
2018-09-10T09:48:54.174Z,5052
2018-09-10T09:50:04.245Z,5040
2018-09-10T09:51:14.644Z,5060
2018-09-10T09:52:25.013Z,5064
2018-09-10T09:53:34.844Z,5072
2018-09-10T09:54:44.922Z,5080
2018-09-10T09:55:54.741Z,5100
2018-09-10T09:57:04.618Z,5108
2018-09-10T09:58:14.487Z,5112
2018-09-10T09:59:24.296Z,5128
2018-09-10T10:00:34.382Z,5136
2018-09-10T10:01:44.478Z,5124
2018-09-10T10:02:54.302Z,5164
2018-09-10T10:04:04.883Z,5180
2018-09-10T10:05:15.148Z,5212
2018-09-10T10:06:25.020Z,5220
2018-09-10T10:07:35.101Z,5240
2018-09-10T10:08:45.188Z,5240
2018-09-10T10:09:55.068Z,5240
2018-09-10T10:11:05.243Z,5224
2018-09-10T10:12:15.546Z,5252
2018-09-10T10:13:25.979Z,5268
2018-09-10T10:14:36.069Z,5256
2018-09-10T10:15:45.935Z,5252
2018-09-10T10:16:56.015Z,5240
2018-09-10T10:18:05.835Z,5216
2018-09-10T10:19:15.914Z,5208
2018-09-10T10:20:26.000Z,5212
2018-09-10T10:21:35.909Z,5232
2018-09-10T10:22:46.014Z,5224
2018-09-10T10:23:56.106Z,5240
2018-09-10T10:25:06.196Z,5252
2018-09-10T10:26:16.286Z,5268
2018-09-10T10:27:26.485Z,5268
2018-09-10T10:28:36.581Z,5288
2018-09-10T10:29:46.664Z,5288
2018-09-10T10:30:56.741Z,5180
2018-09-10T10:32:06.814Z,5224
2018-09-10T10:33:16.981Z,5272
2018-09-10T10:34:27.069Z,5252
2018-09-10T10:35:37.152Z,5216
2018-09-10T10:36:47.005Z,5260
2018-09-10T10:37:56.825Z,5280
2018-09-10T10:39:06.535Z,5248
2018-09-10T10:40:16.681Z,5260
2018-09-10T10:41:26.797Z,5264
2018-09-10T10:42:36.881Z,5292
2018-09-10T10:43:46.963Z,5312
2018-09-10T10:44:57.050Z,5344
2018-09-10T10:46:07.148Z,5340
2018-09-10T10:47:17.295Z,5340
2018-09-10T10:48:27.108Z,5364
2018-09-10T10:49:36.940Z,5352
2018-09-10T10:50:47.021Z,5344
2018-09-10T10:51:57.118Z,5344
2018-09-10T10:53:07.208Z,5360
2018-09-10T10:54:17.303Z,5368
2018-09-10T10:55:26.862Z,5396
2018-09-10T10:56:36.730Z,5400
2018-09-10T10:57:46.569Z,5400
2018-09-10T10:58:56.365Z,5392
2018-09-10T11:00:06.442Z,5420
2018-09-10T11:01:16.017Z,5440
2018-09-10T11:02:26.099Z,5440
2018-09-10T11:03:36.170Z,5444
2018-09-10T11:04:46.252Z,5444
2018-09-10T11:05:56.088Z,5468
2018-09-10T11:07:06.155Z,5480
2018-09-10T11:08:15.968Z,5500
2018-09-10T11:09:26.048Z,5520
2018-09-10T11:10:36.159Z,5528
2018-09-10T11:11:45.957Z,5540
2018-09-10T11:12:56.055Z,5572
2018-09-10T11:14:06.164Z,5584
2018-09-10T11:15:15.974Z,5576
2018-09-10T11:16:26.056Z,5632
2018-09-10T11:17:35.951Z,5636
2018-09-10T11:18:46.009Z,5660
2018-09-10T11:19:56.126Z,5648
2018-09-10T11:21:05.699Z,5668
2018-09-10T11:22:15.874Z,5684
2018-09-10T11:23:25.907Z,5696
2018-09-10T11:24:36.007Z,5696
2018-09-10T11:25:46.137Z,5700
2018-09-10T11:26:56.250Z,5720
2018-09-10T11:28:06.347Z,5740
2018-09-10T11:29:16.474Z,5752
2018-09-10T11:30:26.573Z,5764
2018-09-10T11:31:36.915Z,5764
2018-09-10T11:32:46.464Z,5756
2018-09-10T11:33:56.556Z,5764
2018-09-10T11:35:06.381Z,5780
2018-09-10T11:36:16.483Z,5800
2018-09-10T11:37:26.645Z,5812
2018-09-10T11:38:36.763Z,5812
2018-09-10T11:39:46.578Z,5832
2018-09-10T11:40:56.666Z,5844
2018-09-10T11:42:06.771Z,5836
2018-09-10T11:43:16.865Z,5872
2018-09-10T11:44:26.957Z,5852
2018-09-10T11:45:37.048Z,5848
2018-09-10T11:46:47.398Z,5856
2018-09-10T11:47:57.499Z,5848
2018-09-10T11:49:07.685Z,5864
2018-09-10T11:50:17.799Z,5856
2018-09-10T11:51:27.902Z,5848
2018-09-10T11:52:38.021Z,5864
2018-09-10T11:53:48.130Z,5872
2018-09-10T11:54:58.227Z,5840
2018-09-10T11:56:08.323Z,5848
2018-09-10T11:57:18.209Z,5860
2018-09-10T11:58:28.045Z,5860
2018-09-10T11:59:38.128Z,5872
2018-09-10T12:00:48.204Z,5864
2018-09-10T12:01:58.489Z,5828
2018-09-10T12:03:08.658Z,5840
2018-09-10T12:04:18.488Z,5844
2018-09-10T12:05:28.329Z,5852
2018-09-10T12:06:38.438Z,5852
2018-09-10T12:07:48.553Z,5852
2018-09-10T12:08:58.441Z,5872
2018-09-10T12:10:08.556Z,5876
2018-09-10T12:11:18.648Z,5888
2018-09-10T12:12:28.729Z,5896
2018-09-10T12:13:39.205Z,5920
2018-09-10T12:14:49.427Z,5924
2018-09-10T12:15:59.502Z,5888
2018-09-10T12:17:09.607Z,5900
2018-09-10T12:18:19.427Z,5916
2018-09-10T12:19:29.554Z,5956
2018-09-10T12:20:39.743Z,5960
2018-09-10T12:21:49.831Z,5960
2018-09-10T12:22:59.663Z,5964
2018-09-10T12:24:09.761Z,5972
2018-09-10T12:25:19.836Z,5976
2018-09-10T12:26:29.825Z,5984
2018-09-10T12:27:39.998Z,5960
2018-09-10T12:28:50.106Z,5952
2018-09-10T12:29:59.943Z,5920
2018-09-10T12:31:09.766Z,5924
2018-09-10T12:32:20.006Z,5904
2018-09-10T12:33:29.924Z,5880
2018-09-10T12:34:39.465Z,5856
2018-09-10T12:35:49.293Z,5840
2018-09-10T12:36:59.378Z,5804
2018-09-10T12:38:09.509Z,5712
2018-09-10T12:39:19.759Z,5732
2018-09-10T12:40:30.012Z,5704
2018-09-10T12:41:39.856Z,5664
2018-09-10T12:42:49.940Z,5696
2018-09-10T12:44:00.132Z,5668
2018-09-10T12:45:10.223Z,5656
2018-09-10T12:46:19.854Z,5624
2018-09-10T12:47:29.999Z,5620
2018-09-10T12:48:40.097Z,5620
2018-09-10T12:49:50.231Z,5560
2018-09-10T12:51:00.311Z,5548
2018-09-10T12:52:10.394Z,5556
2018-09-10T12:53:20.501Z,5540
2018-09-10T12:54:30.592Z,5544
2018-09-10T12:55:40.726Z,5536
2018-09-10T12:56:50.829Z,5516
2018-09-10T12:58:00.929Z,5512
2018-09-10T12:59:10.786Z,5480
2018-09-10T13:00:20.890Z,5464
2018-09-10T13:01:30.825Z,5460
2018-09-10T13:02:40.921Z,5464
2018-09-10T13:03:50.753Z,5492
2018-09-10T13:05:00.831Z,5412
2018-09-10T13:06:10.656Z,5400
2018-09-10T13:07:20.756Z,5368
2018-09-10T13:08:30.840Z,5384
2018-09-10T13:09:40.932Z,5324
2018-09-10T13:10:51.142Z,5376
2018-09-10T13:12:01.259Z,5384
2018-09-10T13:13:11.358Z,5384
2018-09-10T13:14:21.450Z,5360
2018-09-10T13:15:31.590Z,5332
2018-09-10T13:16:41.695Z,5320
2018-09-10T13:17:51.785Z,5272
2018-09-10T13:19:01.626Z,5320
2018-09-10T13:20:11.711Z,5248
2018-09-10T13:21:21.904Z,5060
2018-09-10T13:22:32.010Z,5188
2018-09-10T13:23:42.078Z,5236
2018-09-10T13:24:51.895Z,5268
2018-09-10T13:26:01.984Z,5260
2018-09-10T13:27:12.063Z,5256
2018-09-10T13:28:21.906Z,5260
2018-09-10T13:29:32.013Z,5260
2018-09-10T13:30:42.171Z,5284
2018-09-10T13:31:52.215Z,5308
2018-09-10T13:33:02.036Z,5304
2018-09-10T13:34:12.144Z,5268
2018-09-10T13:35:22.223Z,5264
2018-09-10T13:36:32.205Z,5268
2018-09-10T13:37:42.386Z,5276
2018-09-10T13:38:52.521Z,5272
2018-09-10T13:40:02.869Z,5260
2018-09-10T13:41:12.680Z,5276
2018-09-10T13:42:22.775Z,5308
2018-09-10T13:43:32.910Z,5288
2018-09-10T13:44:43.052Z,5296
2018-09-10T13:45:53.132Z,5280
2018-09-10T13:47:03.224Z,5224
2018-09-10T13:48:13.068Z,5104
2018-09-10T13:49:22.891Z,5032
2018-09-10T13:50:32.709Z,4808
2018-09-10T13:51:42.533Z,4556
2018-09-10T13:52:52.629Z,4304
2018-09-10T13:54:02.959Z,4732
2018-09-10T13:55:12.799Z,4712
2018-09-10T13:56:22.938Z,5028
2018-09-10T13:57:33.034Z,4628
2018-09-10T13:58:43.116Z,5032
2018-09-10T13:59:53.467Z,4912
2018-09-10T14:01:03.570Z,4624
2018-09-10T14:02:13.703Z,4964
2018-09-10T14:03:23.848Z,4852
2018-09-10T14:04:33.928Z,4456
2018-09-10T14:05:44.046Z,4508
2018-09-10T14:06:54.132Z,4864
2018-09-10T14:08:04.295Z,4868
2018-09-10T14:09:14.420Z,4600
2018-09-10T14:10:24.577Z,4332
2018-09-10T14:11:34.702Z,4336
2018-09-10T14:12:44.811Z,3956
2018-09-10T14:13:54.727Z,3956
2018-09-10T14:15:04.829Z,3924
2018-09-10T14:16:14.936Z,4084
2018-09-10T14:17:25.601Z,4212
2018-09-10T14:18:36.507Z,4300
2018-09-10T14:19:46.412Z,4208
2018-09-10T14:20:56.515Z,3972
2018-09-10T14:22:06.370Z,4216
2018-09-10T14:23:16.216Z,4448
2018-09-10T14:24:26.343Z,4300
2018-09-10T14:25:36.300Z,4100
2018-09-10T14:26:46.151Z,4148
2018-09-10T14:27:56.257Z,4188
2018-09-10T14:29:06.105Z,4292
2018-09-10T14:30:15.940Z,4244
2018-09-10T14:31:26.063Z,3980
2018-09-10T14:32:36.175Z,3920
2018-09-10T14:33:46.277Z,3860
2018-09-10T14:34:56.563Z,3840
2018-09-10T14:36:07.035Z,4032
2018-09-10T14:37:17.454Z,4120
2018-09-10T14:38:27.569Z,4104
2018-09-10T14:39:37.723Z,4168
2018-09-10T14:40:47.571Z,4440
2018-09-10T14:41:57.696Z,4532
2018-09-10T14:43:07.909Z,4472
2018-09-10T14:44:17.908Z,4272
2018-09-10T14:45:28.015Z,4076
2018-09-10T14:46:38.114Z,3764
2018-09-10T14:47:48.238Z,3748
2018-09-10T14:48:58.415Z,3836
2018-09-10T14:50:08.509Z,3700
2018-09-10T14:51:18.101Z,3496
2018-09-10T14:52:28.212Z,3852
2018-09-10T14:53:38.063Z,3880
2018-09-10T14:54:48.907Z,3928
2018-09-10T14:55:58.743Z,3964
2018-09-10T14:57:08.565Z,4048
2018-09-10T14:58:18.771Z,4008
2018-09-10T14:59:28.273Z,4036
2018-09-10T15:00:38.429Z,4076
2018-09-10T15:01:48.515Z,4104
2018-09-10T15:02:58.341Z,3968
2018-09-10T15:04:08.495Z,4084
2018-09-10T15:05:18.615Z,4072
2018-09-10T15:06:28.753Z,3732
2018-09-10T15:07:38.861Z,3840
2018-09-10T15:08:48.959Z,3828
2018-09-10T15:09:59.071Z,3744
2018-09-10T15:11:08.985Z,3636
2018-09-10T15:12:19.459Z,3412
2018-09-10T15:13:29.649Z,3404
2018-09-10T15:14:40.474Z,3216
2018-09-10T15:15:50.575Z,3156
2018-09-10T15:17:00.666Z,3380
2018-09-10T15:18:10.530Z,3344
2018-09-10T15:19:20.689Z,3040
2018-09-10T15:20:30.774Z,2944
2018-09-10T15:21:40.862Z,3416
2018-09-10T15:22:50.964Z,3168
2018-09-10T15:24:00.901Z,2852
2018-09-10T15:25:10.806Z,2636
2018-09-10T15:26:21.046Z,2304
2018-09-10T15:27:31.129Z,2312
2018-09-10T15:28:41.233Z,2200
2018-09-10T15:29:51.334Z,2144
2018-09-10T15:31:01.414Z,2096
2018-09-10T15:32:11.507Z,2068
2018-09-10T15:33:21.616Z,2052
2018-09-10T15:34:31.938Z,2052
2018-09-10T15:35:41.784Z,2076
2018-09-10T15:36:51.616Z,2132
2018-09-10T15:38:01.727Z,2084
2018-09-10T15:39:11.859Z,2068
2018-09-10T15:40:21.945Z,2172
2018-09-10T15:41:32.042Z,2196
2018-09-10T15:42:42.158Z,2200
2018-09-10T15:43:52.243Z,2236
2018-09-10T15:45:02.356Z,2256
2018-09-10T15:46:12.503Z,2380
2018-09-10T15:47:22.608Z,2300
2018-09-10T15:48:32.456Z,2540
2018-09-10T15:49:42.573Z,2604
2018-09-10T15:50:52.127Z,2456
2018-09-10T15:52:02.225Z,2152
2018-09-10T15:53:12.319Z,2636
2018-09-10T15:54:22.590Z,2224
2018-09-10T15:55:32.675Z,2500
2018-09-10T15:56:42.812Z,2192
2018-09-10T15:57:52.965Z,2516
2018-09-10T15:59:03.079Z,2200
2018-09-10T16:00:13.724Z,2064
2018-09-10T16:01:23.933Z,1804
2018-09-10T16:02:34.027Z,1996
2018-09-10T16:03:44.162Z,1768
2018-09-10T16:04:54.255Z,1864
2018-09-10T16:06:04.100Z,2128
2018-09-10T16:07:14.387Z,2180
2018-09-10T16:08:24.555Z,1816
2018-09-10T16:09:34.683Z,1852
2018-09-10T16:10:44.790Z,2072
2018-09-10T16:11:54.915Z,2060
2018-09-10T16:13:05.214Z,1640
2018-09-10T16:14:15.358Z,1544
2018-09-10T16:15:25.456Z,1548
2018-09-10T16:16:35.585Z,1540
2018-09-10T16:17:45.417Z,1500
2018-09-10T16:18:55.498Z,1488
2018-09-10T16:20:05.388Z,1548
2018-09-10T16:21:15.483Z,1540
2018-09-10T16:22:25.573Z,1500
2018-09-10T16:23:35.664Z,1460
2018-09-10T16:24:45.770Z,1436
2018-09-10T16:25:55.912Z,1412
2018-09-10T16:27:06.044Z,1376